Test XHTML 1.0 Strict Page for WU-History Testing
Station Historical Data
 
Daily Summary for June 27, 2017 Units:  Both    English   Metric
« Previous Day
Next Day »
Daily Weekly Monthly Yearly Custom
  Current: High: Low: Average:
Temperature: 55.9 °F /  13.3 °C 58.3 °F /  14.6 °C 55.4 °F /  13 °C 56.6 °F /  13.7 °C
Dew Point: 49.9 °F /  9.9 °C 53.5 °F /  11.9 °C 49.2 °F /  9.6 °C 51.6 °F /  10.9 °C
Humidity: 80 % 88 % 78 % 84 %
Wind Speed: 0.0 mph /  0 km/h 10.4 mph /  16.7 km/h - 3.2 mph /  5.1 km/h
Wind Gust: 0.0 mph /  0 km/h 10.4 mph /  16.7 km/h - -
Wind:Calm - - NNW
Pressure: 29.86 in /  1011.1 hPa 29.86 in /  1011.1 hPa 29.86 in /  1011.1 hPa -
Precipitation: 0.00 in /  0 mm      
Historical Graphs
 
 
Weather-Above Climate History
Untitled
Tabular Data for June 27, 2017
Time Temperature Dew Point Pressure Wind Wind Speed Wind Gust Humidity Rainfall Rate (Hourly) solar Conditions
00:01 58.3 °F /  14.6 °C 53.1 °F /  11.7 °C 29.86 in /  1011.1 hPa NNW 4.6 mph /  7.4 km/h 4.6 mph /  7.4 km/h 83 % 0.00 in /  0 mm 0.0 W/m2 OVC
00:07 58.1 °F /  14.5 °C 52.0 °F /  11.1 °C 29.86 in /  1011.1 hPa NNW 2.3 mph /  3.7 km/h 2.3 mph /  3.7 km/h 80 % 0.00 in /  0 mm 17.5 W/m2 OVC
00:12 58.1 °F /  14.5 °C 52.3 °F /  11.3 °C 29.86 in /  1011.1 hPa NNW 3.3 mph /  5.3 km/h 3.3 mph /  5.3 km/h 81 % 0.00 in /  0 mm 20.0 W/m2 OVC
00:17 57.9 °F /  14.4 °C 52.5 °F /  11.4 °C 29.86 in /  1011.1 hPa NNW 3.3 mph /  5.3 km/h 3.3 mph /  5.3 km/h 82 % 0.00 in /  0 mm 20.0 W/m2 OVC
00:22 57.6 °F /  14.2 °C 52.1 °F /  11.2 °C 29.86 in /  1011.1 hPa NNW 3.5 mph /  5.6 km/h   82 % 0.00 in /  0 mm 17.5 W/m2 OVC
00:28 57.6 °F /  14.2 °C 51.8 °F /  11 °C 29.86 in /  1011.1 hPa Calm     81 % 0.00 in /  0 mm 0.0 W/m2 OVC
00:33 57.6 °F /  14.2 °C 52.4 °F /  11.3 °C 29.86 in /  1011.1 hPa NNW 6.9 mph /  11.1 km/h 6.9 mph /  11.1 km/h 83 % 0.00 in /  0 mm 17.5 W/m2 OVC
00:38 57.6 °F /  14.2 °C 52.1 °F /  11.2 °C 29.86 in /  1011.1 hPa NNW 5.5 mph /  8.9 km/h 5.5 mph /  8.9 km/h 82 % 0.00 in /  0 mm 17.5 W/m2 OVC
00:43 57.6 °F /  14.2 °C 51.8 °F /  11 °C 29.86 in /  1011.1 hPa NNW 3.5 mph /  5.6 km/h 3.5 mph /  5.6 km/h 81 % 0.00 in /  0 mm 0.0 W/m2 OVC
00:48 57.6 °F /  14.2 °C 52.1 °F /  11.2 °C 29.86 in /  1011.1 hPa NNW 5.8 mph /  9.3 km/h 5.8 mph /  9.3 km/h 82 % 0.00 in /  0 mm 17.5 W/m2 OVC
00:53 57.6 °F /  14.2 °C 52.1 °F /  11.2 °C 29.86 in /  1011.1 hPa NNW 3.5 mph /  5.6 km/h 3.5 mph /  5.6 km/h 82 % 0.00 in /  0 mm 0.0 W/m2 OVC
00:58 57.4 °F /  14.1 °C 51.9 °F /  11.1 °C 29.86 in /  1011.1 hPa NNW 2.3 mph /  3.7 km/h 2.3 mph /  3.7 km/h 82 % 0.00 in /  0 mm 0.0 W/m2 OVC
01:03 57.4 °F /  14.1 °C 51.9 °F /  11.1 °C 29.86 in /  1011.1 hPa NNW 4.6 mph /  7.4 km/h 4.6 mph /  7.4 km/h 82 % 0.00 in /  0 mm 0.0 W/m2 OVC
01:08 57.2 °F /  14 °C 52.4 °F /  11.3 °C 29.86 in /  1011.1 hPa NNW 4.0 mph /  6.4 km/h 4.0 mph /  6.4 km/h 84 % 0.00 in /  0 mm 0.0 W/m2 OVC
01:13 57.0 °F /  13.9 °C 52.2 °F /  11.2 °C 29.86 in /  1011.1 hPa NNW 1.0 mph /  1.6 km/h 1.0 mph /  1.6 km/h 84 % 0.00 in /  0 mm 20.0 W/m2 OVC
01:18 57.6 °F /  14.2 °C 52.4 °F /  11.3 °C 29.86 in /  1011.1 hPa NNW 2.3 mph /  3.7 km/h 2.3 mph /  3.7 km/h 83 % 0.00 in /  0 mm 0.0 W/m2 OVC
01:23 57.2 °F /  14 °C 52.4 °F /  11.3 °C 29.86 in /  1011.1 hPa NNW 3.5 mph /  5.6 km/h 3.5 mph /  5.6 km/h 84 % 0.00 in /  0 mm 20.0 W/m2 OVC
01:28 57.2 °F /  14 °C 52.7 °F /  11.5 °C 29.86 in /  1011.1 hPa NNW 0.4 mph /  0.6 km/h   85 % 0.00 in /  0 mm 20.0 W/m2 OVC
01:33 56.8 °F /  13.8 °C 53.3 °F /  11.8 °C 29.86 in /  1011.1 hPa Calm     88 % 0.00 in /  0 mm 0.0 W/m2 OVC
01:38 56.7 °F /  13.7 °C 53.1 °F /  11.7 °C 29.86 in /  1011.1 hPa Calm     88 % 0.00 in /  0 mm 20.0 W/m2 OVC
01:43 56.7 °F /  13.7 °C 52.8 °F /  11.6 °C 29.86 in /  1011.1 hPa Calm     87 % 0.00 in /  0 mm 15.0 W/m2 OVC
01:48 56.7 °F /  13.7 °C 53.1 °F /  11.7 °C 29.86 in /  1011.1 hPa NNW 3.7 mph /  6 km/h 3.7 mph /  6 km/h 88 % 0.00 in /  0 mm 0.0 W/m2 OVC
01:54 56.7 °F /  13.7 °C 52.8 °F /  11.6 °C 29.86 in /  1011.1 hPa NNW 2.3 mph /  3.7 km/h   87 % 0.00 in /  0 mm 20.0 W/m2 OVC
01:59 56.7 °F /  13.7 °C 52.8 °F /  11.6 °C 29.86 in /  1011.1 hPa NNW 1.7 mph /  2.7 km/h 1.7 mph /  2.7 km/h 87 % 0.00 in /  0 mm 20.0 W/m2 OVC
02:04 56.7 °F /  13.7 °C 53.1 °F /  11.7 °C 29.86 in /  1011.1 hPa NNW 0.3 mph /  0.5 km/h   88 % 0.00 in /  0 mm 15.0 W/m2 OVC
02:09 56.7 °F /  13.7 °C 53.1 °F /  11.7 °C 29.86 in /  1011.1 hPa NNW 2.3 mph /  3.7 km/h 2.3 mph /  3.7 km/h 88 % 0.00 in /  0 mm 20.0 W/m2 OVC
02:14 56.7 °F /  13.7 °C 53.1 °F /  11.7 °C 29.86 in /  1011.1 hPa NNW 1.2 mph /  1.9 km/h 1.2 mph /  1.9 km/h 88 % 0.00 in /  0 mm 0.0 W/m2 OVC
02:19 56.7 °F /  13.7 °C 53.1 °F /  11.7 °C 29.86 in /  1011.1 hPa NNW 0.8 mph /  1.3 km/h 0.8 mph /  1.3 km/h 88 % 0.00 in /  0 mm 17.5 W/m2 OVC
02:24 56.7 °F /  13.7 °C 53.1 °F /  11.7 °C 29.86 in /  1011.1 hPa NNW 0.8 mph /  1.3 km/h 0.8 mph /  1.3 km/h 88 % 0.00 in /  0 mm 0.0 W/m2 OVC
02:29 56.8 °F /  13.8 °C 53.0 °F /  11.7 °C 29.86 in /  1011.1 hPa Calm     87 % 0.00 in /  0 mm 0.0 W/m2 OVC
02:34 56.7 °F /  13.7 °C 53.1 °F /  11.7 °C 29.86 in /  1011.1 hPa NNW 1.8 mph /  2.9 km/h 1.8 mph /  2.9 km/h 88 % 0.00 in /  0 mm 15.0 W/m2 OVC
02:39 57.0 °F /  13.9 °C 52.6 °F /  11.4 °C 29.86 in /  1011.1 hPa NNW 5.0 mph /  8 km/h 5.0 mph /  8 km/h 85 % 0.00 in /  0 mm 0.0 W/m2 OVC
02:44 57.0 °F /  13.9 °C 52.9 °F /  11.6 °C 29.86 in /  1011.1 hPa NNW 1.8 mph /  2.9 km/h 1.8 mph /  2.9 km/h 86 % 0.00 in /  0 mm 0.0 W/m2 OVC
02:49 57.0 °F /  13.9 °C 53.5 °F /  11.9 °C 29.86 in /  1011.1 hPa NNW 1.2 mph /  1.9 km/h   88 % 0.00 in /  0 mm 0.0 W/m2 OVC
02:54 56.8 °F /  13.8 °C 53.3 °F /  11.8 °C 29.86 in /  1011.1 hPa NNW 4.0 mph /  6.4 km/h 4.0 mph /  6.4 km/h 88 % 0.00 in /  0 mm 0.0 W/m2 OVC
02:59 56.7 °F /  13.7 °C 53.1 °F /  11.7 °C 29.86 in /  1011.1 hPa Calm     88 % 0.00 in /  0 mm 17.5 W/m2 OVC
03:04 57.0 °F /  13.9 °C 52.9 °F /  11.6 °C 29.86 in /  1011.1 hPa NNW 3.5 mph /  5.6 km/h 3.5 mph /  5.6 km/h 86 % 0.00 in /  0 mm 0.0 W/m2 OVC
03:09 57.0 °F /  13.9 °C 53.2 °F /  11.8 °C 29.86 in /  1011.1 hPa NNW 5.8 mph /  9.3 km/h 5.8 mph /  9.3 km/h 87 % 0.00 in /  0 mm 15.0 W/m2 OVC
03:14 57.0 °F /  13.9 °C 53.5 °F /  11.9 °C 29.86 in /  1011.1 hPa Calm     88 % 0.00 in /  0 mm 15.0 W/m2 OVC
03:19 56.8 °F /  13.8 °C 53.3 °F /  11.8 °C 29.86 in /  1011.1 hPa NNW 1.2 mph /  1.9 km/h 1.2 mph /  1.9 km/h 88 % 0.00 in /  0 mm 0.0 W/m2 OVC
03:24 56.8 °F /  13.8 °C 53.0 °F /  11.7 °C 29.86 in /  1011.1 hPa NNW 2.3 mph /  3.7 km/h 2.3 mph /  3.7 km/h 87 % 0.00 in /  0 mm 20.0 W/m2 OVC
03:29 57.0 °F /  13.9 °C 53.2 °F /  11.8 °C 29.86 in /  1011.1 hPa NNW 5.2 mph /  8.4 km/h 5.2 mph /  8.4 km/h 87 % 0.00 in /  0 mm 20.0 W/m2 OVC
03:35 56.8 °F /  13.8 °C 53.0 °F /  11.7 °C 29.86 in /  1011.1 hPa NNW 3.5 mph /  5.6 km/h 3.5 mph /  5.6 km/h 87 % 0.00 in /  0 mm 20.0 W/m2 OVC
03:40 56.7 °F /  13.7 °C 52.8 °F /  11.6 °C 29.86 in /  1011.1 hPa NNW 4.4 mph /  7.1 km/h 4.4 mph /  7.1 km/h 87 % 0.00 in /  0 mm 17.5 W/m2 OVC
03:45 56.7 °F /  13.7 °C 53.1 °F /  11.7 °C 29.86 in /  1011.1 hPa NNW 6.1 mph /  9.8 km/h 6.1 mph /  9.8 km/h 88 % 0.00 in /  0 mm 0.0 W/m2 OVC
03:50 56.7 °F /  13.7 °C 52.8 °F /  11.6 °C 29.86 in /  1011.1 hPa NNW 10.4 mph /  16.7 km/h 10.4 mph /  16.7 km/h 87 % 0.00 in /  0 mm 20.0 W/m2 OVC
03:55 56.8 °F /  13.8 °C 52.1 °F /  11.2 °C 29.86 in /  1011.1 hPa NNW 10.4 mph /  16.7 km/h 10.4 mph /  16.7 km/h 84 % 0.00 in /  0 mm 17.5 W/m2 OVC
04:00 56.7 °F /  13.7 °C 52.5 °F /  11.4 °C 29.86 in /  1011.1 hPa NNW 2.8 mph /  4.5 km/h 2.8 mph /  4.5 km/h 86 % 0.00 in /  0 mm 0.0 W/m2 OVC
04:05 56.7 °F /  13.7 °C 52.2 °F /  11.2 °C 29.86 in /  1011.1 hPa NNW 6.9 mph /  11.1 km/h 6.9 mph /  11.1 km/h 85 % 0.00 in /  0 mm 20.0 W/m2 OVC
04:11 56.7 °F /  13.7 °C 51.9 °F /  11.1 °C 29.86 in /  1011.1 hPa NNW 5.8 mph /  9.3 km/h 5.8 mph /  9.3 km/h 84 % 0.00 in /  0 mm 0.0 W/m2 OVC
04:16 56.7 °F /  13.7 °C 51.6 °F /  10.9 °C 29.86 in /  1011.1 hPa NNW 4.6 mph /  7.4 km/h 4.6 mph /  7.4 km/h 83 % 0.00 in /  0 mm 17.5 W/m2 OVC
04:21 56.3 °F /  13.5 °C 51.8 °F /  11 °C 29.86 in /  1011.1 hPa NNW 2.3 mph /  3.7 km/h 2.3 mph /  3.7 km/h 85 % 0.00 in /  0 mm 0.0 W/m2 OVC
04:26 56.5 °F /  13.6 °C 51.4 °F /  10.8 °C 29.86 in /  1011.1 hPa NNW 5.8 mph /  9.3 km/h 5.8 mph /  9.3 km/h 83 % 0.00 in /  0 mm 0.0 W/m2 OVC
04:31 56.7 °F /  13.7 °C 50.9 °F /  10.5 °C 29.86 in /  1011.1 hPa NNW 6.9 mph /  11.1 km/h 6.9 mph /  11.1 km/h 81 % 0.00 in /  0 mm 0.0 W/m2 OVC
04:36 56.7 °F /  13.7 °C 51.6 °F /  10.9 °C 29.86 in /  1011.1 hPa NNW 6.2 mph /  10 km/h 6.2 mph /  10 km/h 83 % 0.00 in /  0 mm 0.0 W/m2 OVC
04:41 56.3 °F /  13.5 °C 51.5 °F /  10.8 °C 29.86 in /  1011.1 hPa NNW 4.6 mph /  7.4 km/h 4.6 mph /  7.4 km/h 84 % 0.00 in /  0 mm 20.0 W/m2 OVC
04:46 56.3 °F /  13.5 °C 51.2 °F /  10.7 °C 29.86 in /  1011.1 hPa NNW 4.1 mph /  6.6 km/h 4.1 mph /  6.6 km/h 83 % 0.00 in /  0 mm 0.0 W/m2 OVC
04:51 56.3 °F /  13.5 °C 50.5 °F /  10.3 °C 29.86 in /  1011.1 hPa NNW 3.7 mph /  6 km/h 3.7 mph /  6 km/h 81 % 0.00 in /  0 mm 0.0 W/m2 OVC
04:56 56.3 °F /  13.5 °C 50.5 °F /  10.3 °C 29.86 in /  1011.1 hPa NNW 3.7 mph /  6 km/h 3.7 mph /  6 km/h 81 % 0.00 in /  0 mm 20.0 W/m2 OVC
05:01 56.3 °F /  13.5 °C 51.2 °F /  10.7 °C 29.86 in /  1011.1 hPa NNW 3.7 mph /  6 km/h 3.7 mph /  6 km/h 83 % 0.00 in /  0 mm 20.0 W/m2 OVC
05:06 56.1 °F /  13.4 °C 50.7 °F /  10.4 °C 29.86 in /  1011.1 hPa NNW 6.2 mph /  10 km/h 6.2 mph /  10 km/h 82 % 0.00 in /  0 mm 20.0 W/m2 OVC
05:11 56.1 °F /  13.4 °C 51.4 °F /  10.8 °C 29.86 in /  1011.1 hPa NNW 7.5 mph /  12.1 km/h 7.5 mph /  12.1 km/h 84 % 0.00 in /  0 mm 0.0 W/m2 OVC
05:16 56.1 °F /  13.4 °C 50.7 °F /  10.4 °C 29.86 in /  1011.1 hPa Calm     82 % 0.00 in /  0 mm 25.0 W/m2 OVC
05:22 56.1 °F /  13.4 °C 50.4 °F /  10.2 °C 29.86 in /  1011.1 hPa NNW 3.6 mph /  5.8 km/h 3.6 mph /  5.8 km/h 81 % 0.00 in /  0 mm 25.0 W/m2 OVC
05:27 56.1 °F /  13.4 °C 50.7 °F /  10.4 °C 29.86 in /  1011.1 hPa NNW 8.3 mph /  13.4 km/h 8.3 mph /  13.4 km/h 82 % 0.00 in /  0 mm 1.4 W/m2 OVC
05:32 56.1 °F /  13.4 °C 50.4 °F /  10.2 °C 29.86 in /  1011.1 hPa NNW 5.8 mph /  9.3 km/h 5.8 mph /  9.3 km/h 81 % 0.00 in /  0 mm 20.0 W/m2 OVC
05:37 56.1 °F /  13.4 °C 50.0 °F /  10 °C 29.86 in /  1011.1 hPa NNW 6.9 mph /  11.1 km/h 6.9 mph /  11.1 km/h 80 % 0.00 in /  0 mm 1.1 W/m2 OVC
05:42 55.9 °F /  13.3 °C 50.5 °F /  10.3 °C 29.86 in /  1011.1 hPa NNW 4.0 mph /  6.4 km/h 4.0 mph /  6.4 km/h 82 % 0.00 in /  0 mm 2.5 W/m2 OVC
05:47 56.1 °F /  13.4 °C 49.7 °F /  9.8 °C 29.86 in /  1011.1 hPa NNW 3.6 mph /  5.8 km/h 3.6 mph /  5.8 km/h 79 % 0.00 in /  0 mm 3.3 W/m2 OVC
05:52 55.9 °F /  13.3 °C 50.5 °F /  10.3 °C 29.86 in /  1011.1 hPa NNW 4.6 mph /  7.4 km/h 4.6 mph /  7.4 km/h 82 % 0.00 in /  0 mm 4.4 W/m2 OVC
05:57 56.1 °F /  13.4 °C 49.7 °F /  9.8 °C 29.86 in /  1011.1 hPa NNW 2.3 mph /  3.7 km/h 2.3 mph /  3.7 km/h 79 % 0.00 in /  0 mm 32.5 W/m2 OVC
06:02 56.1 °F /  13.4 °C 50.0 °F /  10 °C 29.86 in /  1011.1 hPa NNW 1.2 mph /  1.9 km/h 1.2 mph /  1.9 km/h 80 % 0.00 in /  0 mm 5.7 W/m2 OVC
06:07 56.1 °F /  13.4 °C 50.4 °F /  10.2 °C 29.86 in /  1011.1 hPa NNW 4.8 mph /  7.7 km/h 4.8 mph /  7.7 km/h 81 % 0.00 in /  0 mm 4.1 W/m2 OVC
06:12 56.1 °F /  13.4 °C 50.4 °F /  10.2 °C 29.86 in /  1011.1 hPa NNW 1.7 mph /  2.7 km/h 1.7 mph /  2.7 km/h 81 % 0.00 in /  0 mm 20.0 W/m2 OVC
06:17 56.1 °F /  13.4 °C 49.7 °F /  9.8 °C 29.86 in /  1011.1 hPa NNW 2.3 mph /  3.7 km/h 2.3 mph /  3.7 km/h 79 % 0.00 in /  0 mm 3.7 W/m2 OVC
06:22 55.9 °F /  13.3 °C 49.9 °F /  9.9 °C 29.86 in /  1011.1 hPa NNW 2.3 mph /  3.7 km/h 2.3 mph /  3.7 km/h 80 % 0.00 in /  0 mm 20.0 W/m2 OVC
06:27 56.1 °F /  13.4 °C 49.7 °F /  9.8 °C 29.86 in /  1011.1 hPa NNW 6.9 mph /  11.1 km/h 6.9 mph /  11.1 km/h 79 % 0.00 in /  0 mm 32.5 W/m2 OVC
06:32 55.8 °F /  13.2 °C 51.3 °F /  10.7 °C 29.86 in /  1011.1 hPa NNW 1.2 mph /  1.9 km/h   85 % 0.00 in /  0 mm 20.0 W/m2 OVC
06:37 55.8 °F /  13.2 °C 50.7 °F /  10.4 °C 29.86 in /  1011.1 hPa Calm     83 % 0.00 in /  0 mm 22.5 W/m2 OVC
06:42 55.9 °F /  13.3 °C 49.2 °F /  9.6 °C 29.86 in /  1011.1 hPa NNW 1.5 mph /  2.4 km/h 1.5 mph /  2.4 km/h 78 % 0.00 in /  0 mm 9.6 W/m2 OVC
06:47 56.1 °F /  13.4 °C 49.7 °F /  9.8 °C 29.86 in /  1011.1 hPa NNW 2.3 mph /  3.7 km/h   79 % 0.00 in /  0 mm 25.0 W/m2 OVC
06:51 56.1 °F /  13.4 °C 49.7 °F /  9.8 °C 29.86 in /  1011.1 hPa NNW 1.0 mph /  1.6 km/h 1.0 mph /  1.6 km/h 79 % 0.00 in /  0 mm 35.0 W/m2 OVC
06:56 55.9 °F /  13.3 °C 50.5 °F /  10.3 °C 29.86 in /  1011.1 hPa NNW 4.6 mph /  7.4 km/h 4.6 mph /  7.4 km/h 82 % 0.00 in /  0 mm 11.7 W/m2 OVC
07:02 55.9 °F /  13.3 °C 49.5 °F /  9.7 °C 29.86 in /  1011.1 hPa NNW 4.1 mph /  6.6 km/h 4.1 mph /  6.6 km/h 79 % 0.00 in /  0 mm 35.0 W/m2 OVC
07:07 56.1 °F /  13.4 °C 49.7 °F /  9.8 °C 29.86 in /  1011.1 hPa NNW 1.2 mph /  1.9 km/h 1.2 mph /  1.9 km/h 79 % 0.00 in /  0 mm 13.8 W/m2 OVC
07:12 55.8 °F /  13.2 °C 50.7 °F /  10.4 °C 29.86 in /  1011.1 hPa Calm     83 % 0.00 in /  0 mm 14.2 W/m2 OVC
07:17 55.9 °F /  13.3 °C 49.9 °F /  9.9 °C 29.86 in /  1011.1 hPa NNW 1.7 mph /  2.7 km/h 1.7 mph /  2.7 km/h 80 % 0.00 in /  0 mm 16.7 W/m2 OVC
07:22 55.8 °F /  13.2 °C 49.7 °F /  9.8 °C 29.86 in /  1011.1 hPa NNW 2.3 mph /  3.7 km/h   80 % 0.00 in /  0 mm 15.1 W/m2 OVC
07:27 55.8 °F /  13.2 °C 49.7 °F /  9.8 °C 29.86 in /  1011.1 hPa Calm     80 % 0.00 in /  0 mm 30.0 W/m2 OVC
07:32 55.4 °F /  13 °C 50.6 °F /  10.3 °C 29.86 in /  1011.1 hPa NNW 2.3 mph /  3.7 km/h 2.3 mph /  3.7 km/h 84 % 0.00 in /  0 mm 14.7 W/m2 OVC
07:37 55.9 °F /  13.3 °C 50.2 °F /  10.1 °C 29.86 in /  1011.1 hPa NNW 1.2 mph /  1.9 km/h 1.2 mph /  1.9 km/h 81 % 0.00 in /  0 mm 18.5 W/m2 OVC
07:42 55.8 °F /  13.2 °C 49.3 °F /  9.6 °C 29.86 in /  1011.1 hPa NNW 3.5 mph /  5.6 km/h 3.5 mph /  5.6 km/h 79 % 0.00 in /  0 mm 55.0 W/m2 OVC
07:47 55.9 °F /  13.3 °C 49.9 °F /  9.9 °C 29.86 in /  1011.1 hPa Calm     80 % 0.00 in /  0 mm 43.8 W/m2 OVC
Wether-Above
Compliments of Weather Underground - 1.25 mb
Welcome to Weather-Above
Cheddleton weather station supplies various organisations with data from our weather station one of them is the weather Underground this information displayed here is coming from the weather Underground server 

If any information is used please acknowledge the source to www weather-above.com or weather Underground